createdAt,value
2023-03-22T00:01:17.896Z,16.83
2023-03-22T00:03:45.843Z,18.17
2023-03-22T00:06:13.599Z,17.13
2023-03-22T00:08:41.364Z,19.13
2023-03-22T00:11:08.871Z,18.80
2023-03-22T00:13:37.607Z,19.00
2023-03-22T00:16:06.100Z,18.00
2023-03-22T00:18:33.675Z,19.83
2023-03-22T00:21:02.042Z,18.42
2023-03-22T00:23:29.884Z,17.92
2023-03-22T00:25:57.228Z,18.67
2023-03-22T00:28:26.296Z,18.92
2023-03-22T00:33:29.269Z,21.05
2023-03-22T00:36:10.848Z,18.90
2023-03-22T00:38:44.006Z,19.25
2023-03-22T00:41:26.863Z,20.17
2023-03-22T00:43:54.275Z,25.40
2023-03-22T00:46:21.890Z,24.70
2023-03-22T00:48:49.418Z,24.55
2023-03-22T00:51:17.524Z,22.27
2023-03-22T00:53:54.075Z,27.55
2023-03-22T00:56:23.206Z,34.35
2023-03-22T00:58:51.383Z,22.63
2023-03-22T01:01:18.474Z,24.60
2023-03-22T01:03:52.301Z,22.15
2023-03-22T01:06:19.322Z,22.48
2023-03-22T01:08:49.262Z,19.95
2023-03-22T01:11:16.778Z,22.10
2023-03-22T01:13:44.133Z,19.42
2023-03-22T01:16:12.551Z,21.00
2023-03-22T01:18:40.849Z,19.88
2023-03-22T01:21:08.170Z,20.52
2023-03-22T01:23:36.782Z,19.40
2023-03-22T01:26:04.865Z,19.67
2023-03-22T01:28:32.484Z,20.00
2023-03-22T01:31:03.250Z,19.33
2023-03-22T01:33:31.237Z,19.23
2023-03-22T01:35:59.402Z,20.50
2023-03-22T01:38:26.750Z,18.42
2023-03-22T01:40:53.828Z,19.02
2023-03-22T01:43:21.645Z,18.75
2023-03-22T01:45:50.560Z,22.50
2023-03-22T01:48:46.333Z,19.55
2023-03-22T01:51:24.066Z,20.55
2023-03-22T01:54:02.836Z,20.02
2023-03-22T01:56:33.723Z,19.90
2023-03-22T01:59:02.919Z,18.92
2023-03-22T02:01:30.997Z,17.98
2023-03-22T02:04:20.150Z,18.98
2023-03-22T02:06:48.427Z,19.35
2023-03-22T02:09:22.199Z,21.25
2023-03-22T02:12:12.390Z,21.10
2023-03-22T02:14:56.603Z,21.58
2023-03-22T02:18:06.512Z,23.42
2023-03-22T02:20:59.327Z,21.17
2023-03-22T02:23:42.411Z,21.52
2023-03-22T02:26:18.874Z,24.10
2023-03-22T02:28:51.849Z,22.77
2023-03-22T02:31:39.348Z,21.27
2023-03-22T02:34:18.212Z,23.35
2023-03-22T02:36:51.497Z,24.58
2023-03-22T02:39:37.947Z,22.65
2023-03-22T02:42:42.649Z,24.83
2023-03-22T02:45:12.636Z,26.40
2023-03-22T02:47:39.910Z,25.42
2023-03-22T02:50:07.079Z,24.05
2023-03-22T02:52:50.339Z,22.20
2023-03-22T02:55:17.318Z,22.48
2023-03-22T02:57:56.290Z,25.90
2023-03-22T03:00:26.058Z,25.40
2023-03-22T03:03:00.177Z,24.48
2023-03-22T03:05:31.106Z,23.45
2023-03-22T03:08:02.595Z,24.45
2023-03-22T03:10:30.274Z,23.02
2023-03-22T03:12:58.865Z,24.20
2023-03-22T03:15:26.080Z,27.30
2023-03-22T03:17:56.404Z,26.13
2023-03-22T03:20:55.807Z,26.33
2023-03-22T03:23:49.319Z,26.02
2023-03-22T03:26:35.761Z,24.52
2023-03-22T03:29:09.963Z,24.67
2023-03-22T03:31:43.855Z,27.20
2023-03-22T03:34:25.750Z,26.67
2023-03-22T03:37:15.268Z,26.80
2023-03-22T03:39:53.262Z,23.23
2023-03-22T03:42:23.950Z,25.83
2023-03-22T03:44:51.372Z,26.13
2023-03-22T03:47:19.557Z,25.48
2023-03-22T03:49:47.199Z,25.73
2023-03-22T03:52:14.335Z,26.15
2023-03-22T03:54:41.772Z,25.63
2023-03-22T03:57:12.405Z,25.73
2023-03-22T03:59:39.812Z,26.02
2023-03-22T04:02:06.809Z,26.60
2023-03-22T04:04:36.104Z,28.83
2023-03-22T04:07:05.766Z,27.83
2023-03-22T04:09:36.004Z,26.70
2023-03-22T04:12:03.743Z,29.42
2023-03-22T04:14:34.038Z,27.92
2023-03-22T04:17:01.236Z,27.50
2023-03-22T04:19:28.800Z,30.13
2023-03-22T04:21:59.072Z,30.55
2023-03-22T04:24:27.112Z,31.42
2023-03-22T04:26:54.617Z,30.75
2023-03-22T04:29:23.070Z,30.25
2023-03-22T04:31:53.420Z,29.48
2023-03-22T04:34:23.788Z,28.08
2023-03-22T04:36:51.192Z,32.22
2023-03-22T04:39:20.942Z,32.13
2023-03-22T04:41:48.078Z,32.05
2023-03-22T04:44:17.584Z,30.88
2023-03-22T04:46:45.185Z,29.52
2023-03-22T04:49:13.409Z,29.00
2023-03-22T04:51:41.354Z,29.58
2023-03-22T04:54:08.879Z,29.25
2023-03-22T04:56:36.202Z,29.05
2023-03-22T04:59:03.599Z,28.25
2023-03-22T05:01:30.782Z,26.40
2023-03-22T05:03:58.448Z,25.67
2023-03-22T05:06:30.307Z,33.85
2023-03-22T05:08:57.798Z,41.03
2023-03-22T05:11:30.234Z,32.20
2023-03-22T05:13:58.006Z,35.30
2023-03-22T05:16:25.843Z,26.50
2023-03-22T05:18:57.125Z,30.40
2023-03-22T05:21:28.826Z,37.90
2023-03-22T05:23:57.969Z,34.58
2023-03-22T05:26:26.539Z,34.03
2023-03-22T05:28:55.341Z,30.77
2023-03-22T05:31:28.900Z,30.10
2023-03-22T05:33:56.682Z,37.03
2023-03-22T05:36:35.493Z,43.20
2023-03-22T05:39:06.097Z,42.13
2023-03-22T05:41:36.321Z,28.88
2023-03-22T05:44:05.170Z,26.83
2023-03-22T05:46:32.498Z,28.08
2023-03-22T05:49:14.633Z,30.65
2023-03-22T05:56:12.676Z,29.85
2023-03-22T05:58:51.828Z,30.52
2023-03-22T06:04:34.638Z,25.98
2023-03-22T06:07:02.196Z,30.52
2023-03-22T06:09:29.958Z,29.27
2023-03-22T06:11:58.701Z,29.52
2023-03-22T06:14:27.335Z,27.70
2023-03-22T06:16:56.668Z,29.05
2023-03-22T06:19:28.914Z,29.58
2023-03-22T06:21:57.291Z,29.27
2023-03-22T06:24:24.418Z,28.65
2023-03-22T06:26:53.361Z,28.40
2023-03-22T06:29:20.891Z,26.27
2023-03-22T06:34:30.557Z,20.63
2023-03-22T06:37:00.363Z,22.92
2023-03-22T06:39:27.784Z,26.15
2023-03-22T06:41:56.577Z,24.10
2023-03-22T06:44:23.739Z,22.98
2023-03-22T06:49:57.178Z,25.08
2023-03-22T06:52:27.006Z,24.33
2023-03-22T06:54:58.429Z,23.55
2023-03-22T06:57:28.410Z,21.20
2023-03-22T06:59:59.922Z,21.10
2023-03-22T07:02:31.929Z,21.65
2023-03-22T07:04:59.231Z,14.18
2023-03-22T07:07:27.052Z,20.38
2023-03-22T07:09:54.473Z,24.42
2023-03-22T07:12:25.144Z,23.80
2023-03-22T07:14:52.434Z,23.52
2023-03-22T07:17:27.523Z,24.75
2023-03-22T07:19:55.339Z,24.45
2023-03-22T07:22:26.133Z,23.30
2023-03-22T07:24:57.579Z,26.30
2023-03-22T07:27:31.135Z,23.42
2023-03-22T07:29:58.480Z,23.08
2023-03-22T07:32:27.202Z,23.95
2023-03-22T07:34:54.395Z,24.08
2023-03-22T07:37:31.081Z,24.20
2023-03-22T07:39:58.249Z,22.95
2023-03-22T07:42:29.421Z,23.80
2023-03-22T07:44:57.162Z,24.55
2023-03-22T07:53:06.816Z,25.30
2023-03-22T07:55:36.190Z,23.05
2023-03-22T07:58:12.113Z,25.45
2023-03-22T08:00:44.572Z,26.35
2023-03-22T08:03:13.413Z,26.67
2023-03-22T08:05:44.402Z,24.83
2023-03-22T08:08:13.713Z,27.50
2023-03-22T08:10:48.558Z,26.42
2023-03-22T08:13:15.708Z,24.38
2023-03-22T08:15:43.859Z,25.40
2023-03-22T08:18:11.450Z,25.05
2023-03-22T08:20:39.407Z,24.48
2023-03-22T08:23:08.232Z,23.85
2023-03-22T08:25:37.796Z,24.15
2023-03-22T08:28:05.337Z,23.88
2023-03-22T08:30:33.453Z,23.42
2023-03-22T08:33:01.305Z,22.30
2023-03-22T08:35:28.991Z,24.45
2023-03-22T08:37:57.060Z,25.33
2023-03-22T08:40:24.997Z,24.27
2023-03-22T08:42:52.471Z,25.20
2023-03-22T08:45:20.031Z,24.02
2023-03-22T08:47:49.791Z,24.15
2023-03-22T08:50:28.514Z,23.85
2023-03-22T08:52:56.667Z,24.80
2023-03-22T08:57:52.197Z,22.40
2023-03-22T09:00:20.900Z,24.65
2023-03-22T09:02:50.960Z,25.33
2023-03-22T09:05:33.552Z,25.85
2023-03-22T09:08:06.604Z,24.95
2023-03-22T09:10:36.422Z,22.38
2023-03-22T09:13:08.782Z,22.08
2023-03-22T09:15:36.149Z,26.73
2023-03-22T09:18:04.152Z,23.73
2023-03-22T09:20:31.280Z,24.27
2023-03-22T09:22:59.098Z,22.17
2023-03-22T09:25:28.221Z,24.95
2023-03-22T09:27:56.452Z,21.80
2023-03-22T09:30:29.903Z,21.85
2023-03-22T09:33:09.569Z,22.13
2023-03-22T09:35:43.146Z,22.98
2023-03-22T09:38:12.480Z,20.95
2023-03-22T09:40:53.574Z,20.05
2023-03-22T09:43:21.658Z,22.00
2023-03-22T09:45:51.883Z,20.65
2023-03-22T09:48:29.937Z,21.95
2023-03-22T09:51:01.269Z,20.42
2023-03-22T09:53:33.418Z,20.58
2023-03-22T09:56:24.092Z,19.15
2023-03-22T09:59:21.672Z,20.40
2023-03-22T10:02:01.364Z,18.65
2023-03-22T10:04:47.232Z,18.33
2023-03-22T10:07:40.890Z,18.85
2023-03-22T10:10:21.916Z,18.70
2023-03-22T10:12:58.732Z,17.85
2023-03-22T10:15:36.398Z,18.80
2023-03-22T10:18:08.470Z,21.75
2023-03-22T10:20:53.477Z,18.17
2023-03-22T10:23:29.857Z,17.20
2023-03-22T10:26:01.449Z,17.00
2023-03-22T10:28:38.036Z,15.68
2023-03-22T10:31:11.066Z,15.48
2023-03-22T10:33:54.264Z,19.10
2023-03-22T10:36:27.373Z,16.25
2023-03-22T10:39:19.598Z,17.35
2023-03-22T10:41:48.270Z,16.65
2023-03-22T10:47:58.385Z,16.45
2023-03-22T10:50:32.887Z,15.65
2023-03-22T10:53:32.236Z,15.05
2023-03-22T10:55:59.832Z,15.90
2023-03-22T10:58:35.075Z,16.10
2023-03-22T11:01:11.739Z,16.85
2023-03-22T11:03:41.269Z,14.85
2023-03-22T11:06:22.962Z,17.70
2023-03-22T11:08:53.516Z,15.02
2023-03-22T11:11:36.063Z,14.32
2023-03-22T11:14:30.038Z,15.88
2023-03-22T11:17:10.362Z,13.95
2023-03-22T11:19:41.811Z,14.77
2023-03-22T11:22:32.707Z,13.93
2023-03-22T11:25:01.460Z,14.32
2023-03-22T11:27:34.412Z,14.10
2023-03-22T11:30:22.385Z,15.10
2023-03-22T11:33:00.347Z,13.52
2023-03-22T11:35:34.287Z,13.32
2023-03-22T11:38:02.474Z,14.20
2023-03-22T11:43:19.909Z,13.68
2023-03-22T11:45:52.022Z,13.23
2023-03-22T11:48:23.909Z,14.00
2023-03-22T11:50:59.584Z,14.32
2023-03-22T11:53:34.451Z,13.77
2023-03-22T11:56:27.534Z,14.35
2023-03-22T11:59:07.651Z,17.30
2023-03-22T12:01:49.238Z,14.18
2023-03-22T12:04:23.269Z,13.45
2023-03-22T12:06:55.527Z,14.50
2023-03-22T12:09:32.946Z,15.75
2023-03-22T12:12:02.535Z,14.63
2023-03-22T12:14:47.237Z,12.77
2023-03-22T12:18:01.400Z,15.85
2023-03-22T12:20:47.938Z,14.05
2023-03-22T12:23:18.189Z,14.90
2023-03-22T12:26:15.920Z,14.50
2023-03-22T12:29:05.495Z,14.23
2023-03-22T12:31:43.209Z,13.07
2023-03-22T12:34:18.373Z,14.95
2023-03-22T12:36:52.736Z,13.55
2023-03-22T12:39:26.373Z,11.73
2023-03-22T12:42:00.567Z,11.32
2023-03-22T12:45:02.173Z,12.23
2023-03-22T12:47:41.982Z,11.98
2023-03-22T12:50:19.666Z,11.73
2023-03-22T12:52:56.080Z,10.45
2023-03-22T12:58:27.016Z,10.77
2023-03-22T13:01:10.862Z,11.85
2023-03-22T13:03:52.271Z,11.48
2023-03-22T13:06:30.270Z,13.50
2023-03-22T13:09:30.460Z,10.82
2023-03-22T13:12:19.077Z,11.57
2023-03-22T13:14:52.259Z,12.77
2023-03-22T13:17:22.388Z,12.27
2023-03-22T13:20:20.048Z,12.38
2023-03-22T13:22:48.435Z,11.18
2023-03-22T13:25:23.828Z,11.55
2023-03-22T13:27:58.223Z,10.00
2023-03-22T13:30:52.898Z,8.90
2023-03-22T13:33:30.779Z,10.48
2023-03-22T13:36:07.045Z,10.57
2023-03-22T13:38:42.105Z,10.82
2023-03-22T13:41:37.812Z,9.68
2023-03-22T13:44:36.512Z,10.68
2023-03-22T13:47:07.957Z,21.02
2023-03-22T13:49:55.605Z,15.18
2023-03-22T13:52:27.551Z,9.80
2023-03-22T13:54:57.910Z,11.13
2023-03-22T13:57:47.555Z,11.57
2023-03-22T14:00:30.610Z,10.63
2023-03-22T14:03:33.757Z,11.48
2023-03-22T14:06:25.978Z,12.02
2023-03-22T14:09:13.901Z,10.70
2023-03-22T14:11:51.995Z,11.43
2023-03-22T14:14:24.607Z,11.32
2023-03-22T14:17:21.877Z,11.95
2023-03-22T14:19:51.834Z,13.25
